WARR/SUB METAR and TAF weather

Enter ICAO airport designator
Station Type Date Time Source
WARR METAR 2019/06/14 11:00 UTC NOAA

WARR 141100Z 11003KT 6000 FEW020 29/23 Q1009 NOSIG


Station Type Date Time Source
WARR Decoded METAR 2019/06/14 11:00 UTC NOAA

Station name not available
Jun 14, 2019 - 07:00 AM EDT / 2019.06.14 1100 UTC
Wind: from the ESE (110 degrees) at 3 MPH (3 KT):0
Visibility: 3 mile(s):0
Sky conditions: mostly clear
Temperature: 84 F (29 C)
Dew Point: 73 F (23 C)
Relative Humidity: 70%
Pressure (altimeter): 29.80 in. Hg (1009 hPa)
ob: WARR 141100Z 11003KT 6000 FEW020 29/23 Q1009 NOSIG
cycle: 11

Station Type Date Time Source
WARR TAF 2019/06/15 18:09 UTC NOAA

TAF WARR 151700Z 1518/1618 26005KT 7000 FEW020
BECMG 1520/1522 4000 HZ
BECMG 1600/1602 10010KT 9999 NSW
BECMG 1615/1617 28005KT 7000

Example: see airport list